KLM1822 EDDF-EHAM
Flight info
| Callsign | KLM1822 |
|---|---|
| Flight time | 0h 55m |
| Altitude | 24000 |
| Route | MARUN8M/25C MARUN Y152 ARPEG/N0433F300 Z850 ABILU DCT NORKU |
| Aircraft | E75L/M-SDE3GILORVW/S |
Departure
| Time | 2026-05-06 18:18 |
|---|---|
| Airport | Frankfurt Main Airport (EDDF) |
Arrival
| Time | 2026-05-06 19:14 |
|---|---|
| Airport | Amsterdam Airport Schiphol (EHAM) |
| Time | Latitude | Longitude | Altitude | Speed | Heading |
|---|---|---|---|---|---|
| 2026-05-06 17:41 | 50.05027 | 8.58531 | 357 ft | 0 kts | 339° |
| 2026-05-06 18:04 | 50.05010 | 8.58541 | 365 ft | 4 kts | 340° |
| 2026-05-06 18:04 | 50.04985 | 8.58556 | 361 ft | 4 kts | 340° |
| 2026-05-06 18:05 | 50.04961 | 8.58565 | 359 ft | 4 kts | 10° |
| 2026-05-06 18:05 | 50.04942 | 8.58542 | 364 ft | 4 kts | 65° |
| 2026-05-06 18:05 | 50.04935 | 8.58511 | 363 ft | 4 kts | 69° |
| 2026-05-06 18:05 | 50.04933 | 8.58503 | 361 ft | 2 kts | 69° |
| 2026-05-06 18:12 | 50.04933 | 8.58505 | 361 ft | 1 kts | 70° |
| 2026-05-06 18:12 | 50.04942 | 8.58540 | 364 ft | 7 kts | 69° |
| 2026-05-06 18:13 | 50.04940 | 8.58640 | 359 ft | 13 kts | 130° |
| 2026-05-06 18:13 | 50.04857 | 8.58701 | 364 ft | 11 kts | 160° |
| 2026-05-06 18:13 | 50.04834 | 8.58715 | 365 ft | 0 kts | 159° |
| 2026-05-06 18:14 | 50.04825 | 8.58719 | 365 ft | 3 kts | 159° |
| 2026-05-06 18:15 | 50.04787 | 8.58743 | 364 ft | 8 kts | 160° |
| 2026-05-06 18:15 | 50.04720 | 8.58769 | 369 ft | 10 kts | 176° |
| 2026-05-06 18:15 | 50.04655 | 8.58761 | 368 ft | 9 kts | 187° |
| 2026-05-06 18:15 | 50.04637 | 8.58757 | 368 ft | 0 kts | 191° |
| 2026-05-06 18:16 | 50.04636 | 8.58757 | 368 ft | 0 kts | 191° |
| 2026-05-06 18:16 | 50.04634 | 8.58756 | 368 ft | 2 kts | 189° |
| 2026-05-06 18:17 | 50.04592 | 8.58728 | 368 ft | 13 kts | 213° |
| 2026-05-06 18:17 | 50.04514 | 8.58645 | 369 ft | 13 kts | 222° |
| 2026-05-06 18:17 | 50.04471 | 8.58523 | 368 ft | 14 kts | 251° |
| 2026-05-06 18:17 | 50.04422 | 8.58310 | 368 ft | 47 kts | 250° |
| 2026-05-06 18:18 | 50.04247 | 8.57581 | 365 ft | 114 kts | 250° |
| 2026-05-06 18:18 | 50.04051 | 8.56764 | 375 ft | 152 kts | 250° |
| 2026-05-06 18:18 | 50.03558 | 8.54697 | 1280 ft | 171 kts | 252° |
| 2026-05-06 18:18 | 50.03196 | 8.53132 | 2191 ft | 176 kts | 254° |
| 2026-05-06 18:19 | 50.02925 | 8.51902 | 2876 ft | 180 kts | 253° |
| 2026-05-06 18:19 | 50.02314 | 8.50199 | 3856 ft | 188 kts | 225° |
| 2026-05-06 18:19 | 50.01255 | 8.49324 | 4788 ft | 193 kts | 198° |
| 2026-05-06 18:19 | 49.99875 | 8.48716 | 5827 ft | 201 kts | 200° |
| 2026-05-06 18:20 | 49.98479 | 8.47999 | 6567 ft | 213 kts | 201° |
| 2026-05-06 18:20 | 49.96957 | 8.47244 | 6985 ft | 256 kts | 199° |
| 2026-05-06 18:20 | 49.95069 | 8.46443 | 7040 ft | 301 kts | 197° |
| 2026-05-06 18:20 | 49.93105 | 8.45606 | 6971 ft | 281 kts | 203° |
| 2026-05-06 18:21 | 49.91641 | 8.43905 | 7052 ft | 256 kts | 238° |
| 2026-05-06 18:21 | 49.91186 | 8.41416 | 7658 ft | 236 kts | 269° |
| 2026-05-06 18:21 | 49.91391 | 8.38869 | 8423 ft | 241 kts | 277° |
| 2026-05-06 18:21 | 49.91625 | 8.36262 | 9149 ft | 248 kts | 276° |
| 2026-05-06 18:22 | 49.92263 | 8.33703 | 9523 ft | 274 kts | 306° |
| 2026-05-06 18:22 | 49.93801 | 8.31875 | 10017 ft | 292 kts | 328° |
| 2026-05-06 18:22 | 49.95759 | 8.30586 | 10262 ft | 318 kts | 341° |
| 2026-05-06 18:22 | 49.97928 | 8.29700 | 10930 ft | 324 kts | 345° |
| 2026-05-06 18:23 | 50.00153 | 8.29054 | 11781 ft | 325 kts | 350° |
| 2026-05-06 18:23 | 50.02389 | 8.28697 | 12531 ft | 329 kts | 354° |
| 2026-05-06 18:23 | 50.04716 | 8.28614 | 12808 ft | 337 kts | 0° |
| 2026-05-06 18:23 | 50.07027 | 8.28911 | 13177 ft | 324 kts | 9° |
| 2026-05-06 18:24 | 50.09102 | 8.29442 | 15034 ft | 280 kts | 7° |
| 2026-05-06 18:24 | 50.10927 | 8.29667 | 16678 ft | 248 kts | 360° |
| 2026-05-06 18:24 | 50.12644 | 8.29736 | 17356 ft | 258 kts | 359° |
| 2026-05-06 18:24 | 50.14536 | 8.29806 | 17492 ft | 284 kts | 359° |
| 2026-05-06 18:25 | 50.16572 | 8.29852 | 17718 ft | 307 kts | 358° |
| 2026-05-06 18:25 | 50.18789 | 8.29818 | 17910 ft | 331 kts | 357° |
| 2026-05-06 18:25 | 50.21175 | 8.29770 | 18041 ft | 355 kts | 358° |
| 2026-05-06 18:25 | 50.23687 | 8.29784 | 18558 ft | 364 kts | 359° |
| 2026-05-06 18:26 | 50.26234 | 8.29849 | 19318 ft | 364 kts | 359° |
| 2026-05-06 18:26 | 50.28776 | 8.29909 | 20088 ft | 365 kts | 359° |
| 2026-05-06 18:26 | 50.31325 | 8.29948 | 20701 ft | 369 kts | 358° |
| 2026-05-06 18:26 | 50.33906 | 8.29970 | 21306 ft | 373 kts | 358° |
| 2026-05-06 18:27 | 50.36522 | 8.29992 | 21852 ft | 378 kts | 358° |
| 2026-05-06 18:27 | 50.39151 | 8.30014 | 22332 ft | 384 kts | 358° |
| 2026-05-06 18:27 | 50.41793 | 8.30043 | 22910 ft | 386 kts | 358° |
| 2026-05-06 18:27 | 50.44501 | 8.30072 | 23425 ft | 389 kts | 358° |
| 2026-05-06 18:28 | 50.47223 | 8.30102 | 23813 ft | 388 kts | 358° |
| 2026-05-06 18:28 | 50.49923 | 8.30127 | 23819 ft | 389 kts | 358° |
| 2026-05-06 18:28 | 50.52648 | 8.30148 | 23823 ft | 392 kts | 358° |
| 2026-05-06 18:28 | 50.55378 | 8.30173 | 23822 ft | 393 kts | 358° |
| 2026-05-06 18:29 | 50.58118 | 8.30194 | 23822 ft | 393 kts | 358° |
| 2026-05-06 18:29 | 50.60823 | 8.30219 | 23838 ft | 393 kts | 358° |
| 2026-05-06 18:29 | 50.63557 | 8.30243 | 23824 ft | 393 kts | 358° |
| 2026-05-06 18:29 | 50.66295 | 8.30265 | 23822 ft | 393 kts | 358° |
| 2026-05-06 18:30 | 50.69037 | 8.30305 | 23801 ft | 393 kts | 359° |
| 2026-05-06 18:30 | 50.71774 | 8.30381 | 23808 ft | 394 kts | 359° |
| 2026-05-06 18:30 | 50.74521 | 8.30447 | 23810 ft | 393 kts | 358° |
| 2026-05-06 18:30 | 50.77260 | 8.30478 | 23804 ft | 393 kts | 358° |
| 2026-05-06 18:31 | 50.79972 | 8.30493 | 23827 ft | 393 kts | 358° |
| 2026-05-06 18:31 | 50.82705 | 8.30510 | 23824 ft | 393 kts | 358° |
| 2026-05-06 18:31 | 50.85437 | 8.30528 | 23832 ft | 393 kts | 358° |
| 2026-05-06 18:31 | 50.88182 | 8.30550 | 23826 ft | 393 kts | 358° |
| 2026-05-06 18:32 | 50.90902 | 8.30572 | 23824 ft | 393 kts | 358° |
| 2026-05-06 18:32 | 50.93609 | 8.30262 | 23837 ft | 390 kts | 345° |
| 2026-05-06 18:32 | 50.96096 | 8.28683 | 23850 ft | 384 kts | 328° |
| 2026-05-06 18:32 | 50.98377 | 8.26493 | 23868 ft | 384 kts | 324° |
| 2026-05-06 18:33 | 51.00615 | 8.24161 | 23804 ft | 383 kts | 323° |
| 2026-05-06 18:33 | 51.02826 | 8.21820 | 23816 ft | 382 kts | 323° |
| 2026-05-06 18:33 | 51.05028 | 8.19529 | 23841 ft | 383 kts | 324° |
| 2026-05-06 18:33 | 51.07269 | 8.17235 | 23835 ft | 383 kts | 324° |
| 2026-05-06 18:34 | 51.09511 | 8.14949 | 23841 ft | 383 kts | 324° |
| 2026-05-06 18:34 | 51.11759 | 8.12655 | 23842 ft | 383 kts | 324° |
| 2026-05-06 18:34 | 51.14000 | 8.10362 | 23844 ft | 383 kts | 324° |
| 2026-05-06 18:34 | 51.16227 | 8.08076 | 23841 ft | 383 kts | 325° |
| 2026-05-06 18:35 | 51.18478 | 8.05757 | 23843 ft | 386 kts | 325° |
| 2026-05-06 18:35 | 51.20733 | 8.03435 | 23851 ft | 385 kts | 325° |
| 2026-05-06 18:35 | 51.22959 | 8.01141 | 23853 ft | 385 kts | 325° |
| 2026-05-06 18:35 | 51.25205 | 7.98826 | 23859 ft | 385 kts | 325° |
| 2026-05-06 18:36 | 51.27452 | 7.96506 | 23858 ft | 385 kts | 325° |
| 2026-05-06 18:36 | 51.29708 | 7.94174 | 23855 ft | 385 kts | 325° |
| 2026-05-06 18:36 | 51.31962 | 7.91841 | 23859 ft | 385 kts | 325° |
| 2026-05-06 18:36 | 51.34212 | 7.89508 | 23855 ft | 386 kts | 325° |
| 2026-05-06 18:37 | 51.36463 | 7.87172 | 23864 ft | 385 kts | 325° |
| 2026-05-06 18:37 | 51.38720 | 7.84826 | 23865 ft | 385 kts | 325° |
| 2026-05-06 18:37 | 51.40970 | 7.82487 | 23859 ft | 385 kts | 325° |
| 2026-05-06 18:37 | 51.43190 | 7.80175 | 23859 ft | 385 kts | 325° |
| 2026-05-06 18:38 | 51.45434 | 7.77834 | 23860 ft | 385 kts | 325° |
| 2026-05-06 18:38 | 51.47688 | 7.75481 | 23857 ft | 386 kts | 325° |
| 2026-05-06 18:38 | 51.49934 | 7.73135 | 23861 ft | 386 kts | 325° |
| 2026-05-06 18:38 | 51.52184 | 7.70781 | 23860 ft | 385 kts | 325° |
| 2026-05-06 18:39 | 51.54413 | 7.68448 | 23849 ft | 379 kts | 326° |
| 2026-05-06 18:39 | 51.56628 | 7.66124 | 23879 ft | 380 kts | 325° |
| 2026-05-06 18:39 | 51.58845 | 7.63796 | 23864 ft | 381 kts | 325° |
| 2026-05-06 18:40 | 51.63249 | 7.59159 | 23858 ft | 380 kts | 325° |
| 2026-05-06 18:40 | 51.65475 | 7.56815 | 23864 ft | 380 kts | 325° |
| 2026-05-06 18:40 | 51.67686 | 7.54482 | 23864 ft | 381 kts | 325° |
| 2026-05-06 18:40 | 51.69905 | 7.52138 | 23866 ft | 381 kts | 325° |
| 2026-05-06 18:41 | 51.72125 | 7.49791 | 23886 ft | 380 kts | 325° |
| 2026-05-06 18:41 | 51.74338 | 7.47448 | 23885 ft | 381 kts | 325° |
| 2026-05-06 18:41 | 51.76540 | 7.45115 | 23888 ft | 381 kts | 325° |
| 2026-05-06 18:41 | 51.78753 | 7.42766 | 23887 ft | 380 kts | 325° |
| 2026-05-06 18:42 | 51.80969 | 7.40410 | 23888 ft | 380 kts | 325° |
| 2026-05-06 18:42 | 51.83155 | 7.38085 | 23889 ft | 381 kts | 325° |
| 2026-05-06 18:42 | 51.85351 | 7.35746 | 23893 ft | 380 kts | 325° |
| 2026-05-06 18:42 | 51.87565 | 7.33388 | 23894 ft | 381 kts | 325° |
| 2026-05-06 18:43 | 51.89777 | 7.31023 | 23896 ft | 380 kts | 323° |
| 2026-05-06 18:43 | 51.91967 | 7.28667 | 23897 ft | 378 kts | 324° |
| 2026-05-06 18:43 | 51.94162 | 7.26295 | 23906 ft | 378 kts | 321° |
| 2026-05-06 18:43 | 51.95984 | 7.23283 | 23902 ft | 374 kts | 302° |
| 2026-05-06 18:44 | 51.97287 | 7.19628 | 23921 ft | 373 kts | 296° |
| 2026-05-06 18:44 | 51.98486 | 7.15907 | 23888 ft | 374 kts | 296° |
| 2026-05-06 18:44 | 51.99678 | 7.12162 | 23885 ft | 373 kts | 296° |
| 2026-05-06 18:44 | 52.00899 | 7.08434 | 23887 ft | 373 kts | 296° |
| 2026-05-06 18:45 | 52.02097 | 7.04766 | 23888 ft | 373 kts | 296° |
| 2026-05-06 18:45 | 52.03313 | 7.00990 | 23889 ft | 373 kts | 296° |
| 2026-05-06 18:45 | 52.04494 | 6.97293 | 23890 ft | 373 kts | 296° |
| 2026-05-06 18:45 | 52.05684 | 6.93557 | 23890 ft | 373 kts | 296° |
| 2026-05-06 18:46 | 52.06879 | 6.89801 | 23894 ft | 373 kts | 296° |
| 2026-05-06 18:46 | 52.08071 | 6.86051 | 23907 ft | 372 kts | 296° |
| 2026-05-06 18:46 | 52.09254 | 6.82320 | 23899 ft | 370 kts | 296° |
| 2026-05-06 18:46 | 52.10431 | 6.78602 | 23905 ft | 370 kts | 295° |
| 2026-05-06 18:47 | 52.11592 | 6.74856 | 23912 ft | 370 kts | 295° |
| 2026-05-06 18:47 | 52.12736 | 6.71131 | 23897 ft | 371 kts | 295° |
| 2026-05-06 18:47 | 52.13884 | 6.67426 | 23912 ft | 370 kts | 295° |
| 2026-05-06 18:47 | 52.15053 | 6.63700 | 23912 ft | 370 kts | 296° |
| 2026-05-06 18:48 | 52.16235 | 6.59953 | 23908 ft | 371 kts | 296° |
| 2026-05-06 18:48 | 52.17414 | 6.56210 | 23908 ft | 370 kts | 296° |
| 2026-05-06 18:48 | 52.18592 | 6.52463 | 23910 ft | 370 kts | 296° |
| 2026-05-06 18:48 | 52.19762 | 6.48724 | 23918 ft | 370 kts | 295° |
| 2026-05-06 18:49 | 52.20932 | 6.44980 | 23915 ft | 370 kts | 295° |
| 2026-05-06 18:49 | 52.22092 | 6.41258 | 23905 ft | 364 kts | 295° |
| 2026-05-06 18:49 | 52.23202 | 6.37699 | 23854 ft | 350 kts | 295° |
| 2026-05-06 18:49 | 52.24285 | 6.34220 | 23889 ft | 341 kts | 295° |
| 2026-05-06 18:50 | 52.25359 | 6.30747 | 23964 ft | 345 kts | 295° |
| 2026-05-06 18:50 | 52.26528 | 6.27313 | 23941 ft | 347 kts | 306° |
| 2026-05-06 18:50 | 52.28338 | 6.24696 | 23932 ft | 352 kts | 329° |
| 2026-05-06 18:50 | 52.30673 | 6.23445 | 23954 ft | 357 kts | 349° |
| 2026-05-06 18:51 | 52.33123 | 6.23007 | 23993 ft | 358 kts | 353° |
| 2026-05-06 18:51 | 52.35623 | 6.22649 | 23902 ft | 361 kts | 353° |
| 2026-05-06 18:51 | 52.38117 | 6.22299 | 23905 ft | 358 kts | 353° |
| 2026-05-06 18:51 | 52.40615 | 6.21947 | 23757 ft | 360 kts | 353° |
| 2026-05-06 18:52 | 52.43103 | 6.21598 | 23597 ft | 358 kts | 353° |
| 2026-05-06 18:52 | 52.45588 | 6.21247 | 23350 ft | 358 kts | 353° |
| 2026-05-06 18:52 | 52.48069 | 6.20899 | 22982 ft | 356 kts | 353° |
| 2026-05-06 18:52 | 52.50494 | 6.20556 | 22608 ft | 352 kts | 353° |
| 2026-05-06 18:53 | 52.52927 | 6.20222 | 22216 ft | 348 kts | 351° |
| 2026-05-06 18:53 | 52.55345 | 6.19873 | 21851 ft | 353 kts | 353° |
| 2026-05-06 18:53 | 52.57802 | 6.19314 | 21491 ft | 360 kts | 342° |
| 2026-05-06 18:53 | 52.60016 | 6.17475 | 21169 ft | 356 kts | 318° |
| 2026-05-06 18:54 | 52.61531 | 6.14335 | 21382 ft | 352 kts | 294° |
| 2026-05-06 18:54 | 52.62171 | 6.10472 | 21431 ft | 353 kts | 272° |
| 2026-05-06 18:54 | 52.61939 | 6.06562 | 21361 ft | 336 kts | 259° |
| 2026-05-06 18:54 | 52.61535 | 6.02874 | 21073 ft | 316 kts | 259° |
| 2026-05-06 18:55 | 52.61109 | 5.99441 | 20355 ft | 307 kts | 254° |
| 2026-05-06 18:55 | 52.60401 | 5.96183 | 19690 ft | 299 kts | 246° |
| 2026-05-06 18:55 | 52.59388 | 5.93228 | 18952 ft | 296 kts | 236° |
| 2026-05-06 18:55 | 52.58098 | 5.90604 | 18163 ft | 294 kts | 231° |
| 2026-05-06 18:56 | 52.56997 | 5.87816 | 17261 ft | 290 kts | 245° |
| 2026-05-06 18:56 | 52.56139 | 5.84826 | 16360 ft | 290 kts | 247° |
| 2026-05-06 18:56 | 52.55276 | 5.81786 | 15567 ft | 299 kts | 247° |
| 2026-05-06 18:56 | 52.54366 | 5.78638 | 14700 ft | 310 kts | 246° |
| 2026-05-06 18:57 | 52.53416 | 5.75416 | 13875 ft | 320 kts | 245° |
| 2026-05-06 18:57 | 52.52434 | 5.72105 | 13301 ft | 319 kts | 246° |
| 2026-05-06 18:57 | 52.51491 | 5.68919 | 13166 ft | 303 kts | 246° |
| 2026-05-06 18:57 | 52.50617 | 5.65894 | 12863 ft | 295 kts | 247° |
| 2026-05-06 18:58 | 52.49763 | 5.62843 | 12353 ft | 292 kts | 248° |
| 2026-05-06 18:58 | 52.48940 | 5.59804 | 11633 ft | 290 kts | 248° |
| 2026-05-06 18:58 | 52.48145 | 5.56770 | 10833 ft | 290 kts | 248° |
| 2026-05-06 18:58 | 52.47366 | 5.53705 | 10112 ft | 289 kts | 249° |
| 2026-05-06 18:59 | 52.46619 | 5.50657 | 9357 ft | 287 kts | 251° |
| 2026-05-06 18:59 | 52.45949 | 5.47574 | 8591 ft | 287 kts | 260° |
| 2026-05-06 18:59 | 52.45576 | 5.44371 | 8128 ft | 286 kts | 253° |
| 2026-05-06 18:59 | 52.44698 | 5.41489 | 7741 ft | 285 kts | 240° |
| 2026-05-06 19:00 | 52.43726 | 5.38668 | 7327 ft | 283 kts | 242° |
| 2026-05-06 19:00 | 52.42767 | 5.35825 | 6941 ft | 281 kts | 241° |
| 2026-05-06 19:00 | 52.41845 | 5.33084 | 7320 ft | 268 kts | 241° |
| 2026-05-06 19:00 | 52.41216 | 5.31291 | 7671 ft | 277 kts | 242° |
| 2026-05-06 19:01 | 52.39873 | 5.27587 | 7250 ft | 284 kts | 240° |
| 2026-05-06 19:01 | 52.38961 | 5.24887 | 7181 ft | 268 kts | 241° |
| 2026-05-06 19:01 | 52.38080 | 5.22296 | 7165 ft | 255 kts | 242° |
| 2026-05-06 19:01 | 52.37224 | 5.19786 | 6954 ft | 248 kts | 241° |
| 2026-05-06 19:02 | 52.36400 | 5.17364 | 6597 ft | 247 kts | 242° |
| 2026-05-06 19:02 | 52.35557 | 5.14883 | 6150 ft | 251 kts | 242° |
| 2026-05-06 19:02 | 52.34722 | 5.12348 | 5691 ft | 256 kts | 242° |
| 2026-05-06 19:02 | 52.33757 | 5.09831 | 5129 ft | 266 kts | 237° |
| 2026-05-06 19:03 | 52.32745 | 5.07265 | 4609 ft | 271 kts | 238° |
| 2026-05-06 19:03 | 52.31707 | 5.04627 | 4038 ft | 277 kts | 238° |
| 2026-05-06 19:03 | 52.30663 | 5.01999 | 3641 ft | 276 kts | 238° |
| 2026-05-06 19:03 | 52.30073 | 5.00509 | 3400 ft | 277 kts | 238° |
| 2026-05-06 19:04 | 52.29029 | 4.97889 | 3080 ft | 273 kts | 238° |
| 2026-05-06 19:04 | 52.28009 | 4.95324 | 2982 ft | 261 kts | 237° |
| 2026-05-06 19:04 | 52.27008 | 4.92809 | 3130 ft | 273 kts | 238° |
| 2026-05-06 19:04 | 52.26318 | 4.91065 | 3068 ft | 276 kts | 238° |
| 2026-05-06 19:05 | 52.25270 | 4.88411 | 2926 ft | 274 kts | 238° |
| 2026-05-06 19:05 | 52.23909 | 4.84963 | 3027 ft | 275 kts | 238° |
| 2026-05-06 19:05 | 52.22878 | 4.82337 | 2989 ft | 271 kts | 237° |
| 2026-05-06 19:05 | 52.22197 | 4.80605 | 3029 ft | 278 kts | 238° |
| 2026-05-06 19:06 | 52.21155 | 4.77955 | 2974 ft | 275 kts | 238° |
| 2026-05-06 19:06 | 52.20129 | 4.75339 | 2975 ft | 277 kts | 238° |
| 2026-05-06 19:06 | 52.19085 | 4.72704 | 2684 ft | 273 kts | 237° |
| 2026-05-06 19:06 | 52.18072 | 4.70142 | 2432 ft | 264 kts | 238° |
| 2026-05-06 19:07 | 52.17065 | 4.67603 | 1889 ft | 266 kts | 238° |
| 2026-05-06 19:07 | 52.16107 | 4.65202 | 1878 ft | 247 kts | 237° |
| 2026-05-06 19:07 | 52.15192 | 4.62945 | 1882 ft | 229 kts | 238° |
| 2026-05-06 19:07 | 52.14346 | 4.60895 | 2002 ft | 208 kts | 237° |
| 2026-05-06 19:08 | 52.13777 | 4.58794 | 1803 ft | 204 kts | 269° |
| 2026-05-06 19:08 | 52.14113 | 4.56649 | 1586 ft | 193 kts | 314° |
| 2026-05-06 19:08 | 52.14881 | 4.55660 | 1719 ft | 170 kts | 336° |
| 2026-05-06 19:08 | 52.15831 | 4.54728 | 1925 ft | 181 kts | 332° |
| 2026-05-06 19:09 | 52.16892 | 4.53641 | 2109 ft | 177 kts | 334° |
| 2026-05-06 19:09 | 52.18077 | 4.53139 | 2150 ft | 177 kts | 13° |
| 2026-05-06 19:09 | 52.19162 | 4.53965 | 2131 ft | 172 kts | 34° |
| 2026-05-06 19:09 | 52.20170 | 4.54984 | 2098 ft | 166 kts | 32° |
| 2026-05-06 19:10 | 52.21169 | 4.55881 | 2093 ft | 165 kts | 28° |
| 2026-05-06 19:10 | 52.22202 | 4.56743 | 2006 ft | 169 kts | 33° |
| 2026-05-06 19:10 | 52.22946 | 4.58137 | 1936 ft | 163 kts | 60° |
| 2026-05-06 19:10 | 52.23482 | 4.59746 | 2053 ft | 165 kts | 56° |
| 2026-05-06 19:11 | 52.24164 | 4.61362 | 1785 ft | 172 kts | 54° |
| 2026-05-06 19:11 | 52.24787 | 4.62964 | 1549 ft | 168 kts | 58° |
| 2026-05-06 19:11 | 52.25391 | 4.64569 | 1322 ft | 163 kts | 56° |
| 2026-05-06 19:11 | 52.25989 | 4.66109 | 1123 ft | 155 kts | 56° |
| 2026-05-06 19:12 | 52.26531 | 4.67521 | 897 ft | 138 kts | 55° |
| 2026-05-06 19:12 | 52.27013 | 4.68772 | 697 ft | 125 kts | 54° |
| 2026-05-06 19:12 | 52.27481 | 4.69988 | 588 ft | 127 kts | 56° |
| 2026-05-06 19:12 | 52.27940 | 4.71237 | 436 ft | 132 kts | 57° |
| 2026-05-06 19:13 | 52.28431 | 4.72527 | 249 ft | 136 kts | 55° |
| 2026-05-06 19:13 | 52.28857 | 4.73601 | 62 ft | 137 kts | 56° |
| 2026-05-06 19:13 | 52.29336 | 4.74830 | -4 ft | 117 kts | 57° |
| 2026-05-06 19:13 | 52.29684 | 4.75735 | -5 ft | 92 kts | 57° |
| 2026-05-06 19:14 | 52.29957 | 4.76437 | -5 ft | 47 kts | 53° |
| 2026-05-06 19:14 | 52.30148 | 4.76640 | -3 ft | 22 kts | 27° |
| 2026-05-06 19:14 | 52.30232 | 4.76708 | -3 ft | 11 kts | 24° |
| 2026-05-06 19:14 | 52.30306 | 4.76740 | -3 ft | 11 kts | 349° |
| 2026-05-06 19:15 | 52.30340 | 4.76644 | -3 ft | 13 kts | 249° |
| 2026-05-06 19:15 | 52.30291 | 4.76509 | -3 ft | 15 kts | 238° |
| 2026-05-06 19:15 | 52.30234 | 4.76365 | -3 ft | 14 kts | 237° |
| 2026-05-06 19:15 | 52.30219 | 4.76240 | -3 ft | 10 kts | 305° |
| 2026-05-06 19:16 | 52.30273 | 4.76181 | -3 ft | 9 kts | 331° |
| 2026-05-06 19:16 | 52.30310 | 4.76159 | -3 ft | 3 kts | 10° |
| 2026-05-06 19:16 | 52.30324 | 4.76179 | -3 ft | 3 kts | 55° |
| 2026-05-06 19:16 | 52.30333 | 4.76204 | -3 ft | 2 kts | 59° |
| 2026-05-06 19:17 | 52.30337 | 4.76214 | -3 ft | 1 kts | 58° |